Time;durP1;ratioP1;P1;durP2;ratioP2;P2;SDS_P1;SDS_P2;PMS_P1;PMS_P2;Temp;Humidity;BMP_temperature;BMP_pressure;BME280_temperature;BME280_humidity;BME280_pressure;Samples;Min_cycle;Max_cycle;Signal;HPM_P1;HPM_P2
2022/05/30 00:01:15;;;;;;;2.45;1.98;;;;;;;22.67;44.33;99693.84;1809361;78;21025;-60
2022/05/30 00:03:41;;;;;;;2.62;2.00;;;;;;;22.67;44.24;99691.13;1794168;79;21064;-61
2022/05/30 00:06:11;;;;;;;3.40;2.20;;;;;;;22.66;44.29;99684.91;1772923;79;21026;-60
2022/05/30 00:08:38;;;;;;;3.42;2.08;;;;;;;22.64;44.35;99682.98;1788923;79;21470;-60
2022/05/30 00:11:07;;;;;;;2.62;2.12;;;;;;;22.66;44.34;99689.52;1813751;78;21000;-61
2022/05/30 00:13:34;;;;;;;2.42;1.80;;;;;;;22.65;44.42;99684.61;1800445;79;21016;-62
2022/05/30 00:16:06;;;;;;;2.27;2.08;;;;;;;22.65;44.44;99684.61;1784805;79;21013;-61
2022/05/30 00:18:33;;;;;;;3.30;2.20;;;;;;;22.66;44.41;99684.09;1817778;78;21126;-61
2022/05/30 00:20:59;;;;;;;2.83;1.90;;;;;;;22.65;44.49;99677.03;1814316;78;21136;-62
2022/05/30 00:23:26;;;;;;;2.22;1.92;;;;;;;22.65;44.49;99676.48;1780262;79;21045;-61
2022/05/30 00:25:52;;;;;;;2.55;2.15;;;;;;;22.64;44.47;99672.16;1822121;78;21025;-61
2022/05/30 00:28:19;;;;;;;4.53;2.40;;;;;;;22.64;44.46;99668.61;1781030;79;21046;-61
2022/05/30 00:30:47;;;;;;;2.65;1.95;;;;;;;22.64;44.49;99671.31;1789295;78;21107;-61
2022/05/30 00:33:13;;;;;;;2.58;2.15;;;;;;;22.64;44.49;99669.96;1792784;78;21139;-59
2022/05/30 00:35:41;;;;;;;2.85;2.17;;;;;;;22.63;44.46;99664.27;1769037;80;21032;-60
2022/05/30 00:38:07;;;;;;;2.60;2.27;;;;;;;22.64;44.57;99676.73;1809549;78;21484;-61
2022/05/30 00:40:34;;;;;;;2.47;2.02;;;;;;;22.62;44.74;99674.80;1784926;79;21085;-60
2022/05/30 00:43:26;;;;;;;2.47;2.27;;;;;;;22.62;44.79;99670.23;1793427;79;21781;-60
2022/05/30 00:45:54;;;;;;;2.30;2.00;;;;;;;22.61;44.72;99667.23;1779075;79;21252;-60
2022/05/30 00:48:26;;;;;;;2.90;1.80;;;;;;;22.61;44.75;99661.00;1784965;79;21037;-61
2022/05/30 00:50:55;;;;;;;3.80;2.33;;;;;;;22.60;44.79;99652.06;1768141;79;21561;-60
2022/05/30 00:53:22;;;;;;;2.70;2.10;;;;;;;22.59;44.85;99653.13;1765737;79;21534;-60
2022/05/30 00:55:49;;;;;;;3.50;1.87;;;;;;;22.58;44.95;99654.20;1783453;79;21120;-61
2022/05/30 00:58:15;;;;;;;2.65;1.80;;;;;;;22.57;45.03;99646.59;1787897;80;21149;-61
2022/05/30 01:00:42;;;;;;;2.52;2.33;;;;;;;22.55;45.14;99635.20;1772111;79;21034;-59
2022/05/30 01:08:40;;;;;;;4.08;2.08;;;;;;;22.54;44.97;99597.55;1781400;80;20970;-60
2022/05/30 01:11:06;;;;;;;2.17;1.82;;;;;;;22.52;45.04;99591.05;1816165;78;21307;-60
2022/05/30 01:13:33;;;;;;;2.25;2.05;;;;;;;22.53;45.05;99587.80;1811379;78;21461;-59
2022/05/30 01:15:59;;;;;;;3.12;2.40;;;;;;;22.51;45.08;99585.34;1805095;79;21054;-60
2022/05/30 01:18:47;;;;;;;3.98;2.90;;;;;;;22.51;45.10;99575.87;1790684;79;21013;-60
2022/05/30 01:21:41;;;;;;;2.75;2.20;;;;;;;22.50;45.13;99567.48;1746524;79;21119;-61
2022/05/30 01:24:23;;;;;;;2.60;2.40;;;;;;;22.52;45.10;99572.11;1781098;80;21138;-60
2022/05/30 01:27:32;;;;;;;2.50;2.20;;;;;;;22.50;45.12;99562.58;1782766;79;20982;-60
2022/05/30 01:30:03;;;;;;;4.87;2.30;;;;;;;22.47;45.21;99554.44;1772782;79;21099;-59
2022/05/30 01:32:30;;;;;;;3.30;2.17;;;;;;;22.46;45.27;99562.26;1792203;78;21509;-59
2022/05/30 01:34:58;;;;;;;2.77;1.98;;;;;;;22.45;45.30;99564.70;1764465;79;21087;-61
2022/05/30 01:37:27;;;;;;;2.80;2.22;;;;;;;22.45;45.34;99563.89;1779322;79;21157;-60
2022/05/30 01:39:54;;;;;;;2.58;2.35;;;;;;;22.44;45.38;99561.69;1767344;80;21029;-60
2022/05/30 01:42:21;;;;;;;3.02;2.20;;;;;;;22.44;45.41;99561.69;1781939;80;21061;-59
2022/05/30 01:44:48;;;;;;;2.80;2.30;;;;;;;22.44;45.48;99560.34;1772616;79;20990;-60
2022/05/30 01:47:15;;;;;;;4.87;2.50;;;;;;;22.43;45.56;99551.95;1791319;79;21541;-59
2022/05/30 01:49:43;;;;;;;3.95;2.27;;;;;;;22.42;45.64;99554.36;1777700;79;21147;-61
2022/05/30 01:52:12;;;;;;;3.45;2.37;;;;;;;22.42;45.71;99558.42;1767989;79;21079;-61
2022/05/30 01:54:40;;;;;;;4.67;2.85;;;;;;;22.41;45.80;99564.92;1767714;79;22012;-60
2022/05/30 01:57:20;;;;;;;2.58;2.00;;;;;;;22.41;45.90;99573.55;1773183;79;21026;-60
2022/05/30 01:59:49;;;;;;;3.72;2.20;;;;;;;22.41;45.97;99573.55;1761538;79;21035;-60
2022/05/30 02:02:17;;;;;;;4.62;2.40;;;;;;;22.39;46.10;99567.05;1765639;79;21798;-61
2022/05/30 02:04:44;;;;;;;3.77;2.50;;;;;;;22.38;46.19;99565.41;1772832;79;21023;-60
2022/05/30 02:07:11;;;;;;;4.40;2.77;;;;;;;22.38;46.29;99568.92;1782995;79;21026;-61
2022/05/30 02:09:38;;;;;;;2.50;2.20;;;;;;;22.38;46.42;99566.22;1772164;79;20986;-61
2022/05/30 02:12:08;;;;;;;3.92;2.52;;;;;;;22.36;46.59;99564.30;1775121;79;21135;-61
2022/05/30 02:14:46;;;;;;;2.92;2.08;;;;;;;22.37;46.75;99562.43;1754796;79;21105;-60
2022/05/30 02:17:13;;;;;;;2.25;2.05;;;;;;;22.34;46.96;99564.27;1793202;79;21025;-60
2022/05/30 02:19:44;;;;;;;2.52;2.00;;;;;;;22.32;47.08;99558.29;1795498;79;20997;-60
2022/05/30 02:22:16;;;;;;;2.70;2.37;;;;;;;22.31;47.17;99552.07;1788460;79;21028;-61
2022/05/30 02:24:42;;;;;;;3.17;2.47;;;;;;;22.31;47.33;99551.23;1775836;79;21021;-61
2022/05/30 02:27:12;;;;;;;3.12;2.27;;;;;;;22.31;47.43;99556.64;1765966;79;21008;-61
2022/05/30 02:29:42;;;;;;;2.60;2.40;;;;;;;22.30;47.53;99544.20;1784038;79;21076;-60
2022/05/30 02:32:10;;;;;;;2.87;2.12;;;;;;;22.30;47.66;99546.90;1788652;79;21272;-60
2022/05/30 02:37:23;;;;;;;3.55;2.47;;;;;;;22.30;47.87;99542.30;1784719;79;21026;-60
2022/05/30 02:39:50;;;;;;;4.15;2.67;;;;;;;22.30;47.99;99526.61;1780019;79;21991;-60
2022/05/30 02:42:36;;;;;;;3.00;2.70;;;;;;;22.30;48.11;99533.38;1766097;79;21110;-60
2022/05/30 02:45:07;;;;;;;3.00;2.47;;;;;;;22.29;48.22;99538.48;1773396;79;21051;-60
2022/05/30 02:47:36;;;;;;;4.28;2.50;;;;;;;22.27;48.35;99541.47;1747419;79;21518;-60
2022/05/30 02:50:05;;;;;;;2.67;2.47;;;;;;;22.26;48.40;99547.93;1781153;79;21595;-60
2022/05/30 02:52:33;;;;;;;4.08;2.58;;;;;;;22.26;48.50;99552.53;1782336;79;21256;-60
2022/05/30 02:55:00;;;;;;;2.40;2.20;;;;;;;22.26;48.54;99555.23;1779997;79;21041;-62
2022/05/30 02:57:29;;;;;;;4.03;2.75;;;;;;;22.26;48.67;99557.94;1788859;79;21029;-61
2022/05/30 02:59:56;;;;;;;3.02;2.35;;;;;;;22.25;48.74;99561.19;1776930;79;21509;-60
2022/05/30 03:02:23;;;;;;;2.62;2.42;;;;;;;22.26;48.88;99562.00;1792656;79;21556;-59
2022/05/30 03:04:49;;;;;;;3.55;2.55;;;;;;;22.25;48.97;99564.41;1781753;79;21178;-61
2022/05/30 03:07:18;;;;;;;4.33;2.65;;;;;;;22.25;49.04;99584.70;1775622;79;21061;-60
2022/05/30 03:09:46;;;;;;;4.70;2.55;;;;;;;22.26;49.15;99585.00;1784877;79;21584;-60
2022/05/30 03:12:31;;;;;;;4.92;2.67;;;;;;;22.26;49.27;99576.88;1783017;79;21044;-61
2022/05/30 03:14:57;;;;;;;3.45;2.92;;;;;;;22.24;49.46;99570.88;1771605;79;20990;-60
2022/05/30 03:17:23;;;;;;;3.17;2.70;;;;;;;22.22;49.55;99580.58;1786666;79;21117;-61
2022/05/30 03:19:52;;;;;;;4.80;3.17;;;;;;;22.23;49.67;99599.79;1794391;79;20993;-60
2022/05/30 03:22:20;;;;;;;4.70;3.40;;;;;;;22.24;49.71;99604.69;1779285;79;21502;-61
2022/05/30 03:25:07;;;;;;;4.20;2.90;;;;;;;22.22;49.88;99608.99;1784055;79;21036;-60
2022/05/30 03:27:34;;;;;;;3.83;3.42;;;;;;;22.23;50.03;99608.45;1783157;79;21131;-61
2022/05/30 03:30:01;;;;;;;3.62;3.33;;;;;;;22.22;50.15;99608.99;1782075;79;21083;-61
2022/05/30 03:32:27;;;;;;;3.60;3.30;;;;;;;22.21;50.30;99607.34;1774025;79;21006;-62
2022/05/30 03:34:54;;;;;;;3.05;2.77;;;;;;;22.20;50.40;99597.60;1773187;79;21541;-62
2022/05/30 03:37:21;;;;;;;4.15;3.42;;;;;;;22.19;50.60;99595.95;1781685;79;20997;-61
2022/05/30 03:39:52;;;;;;;3.27;2.67;;;;;;;22.17;50.64;99585.40;1781279;80;21024;-61
2022/05/30 03:42:23;;;;;;;3.15;2.85;;;;;;;22.16;50.70;99569.41;1794200;79;21213;-62
2022/05/30 03:44:53;;;;;;;2.85;2.65;;;;;;;22.14;50.84;99566.13;1787848;79;21016;-60
2022/05/30 03:47:19;;;;;;;3.15;2.60;;;;;;;22.13;50.94;99571.25;1783036;79;21513;-61
2022/05/30 03:49:47;;;;;;;3.17;2.87;;;;;;;22.10;51.06;99563.10;1795078;78;21516;-61
2022/05/30 03:52:14;;;;;;;3.10;2.80;;;;;;;22.10;51.09;99563.10;1769643;79;21056;-61
2022/05/30 03:54:42;;;;;;;2.87;2.62;;;;;;;22.09;51.16;99544.41;1741879;81;21560;-61
2022/05/30 03:57:09;;;;;;;3.80;2.80;;;;;;;22.08;51.29;99546.30;1780206;79;21429;-60
2022/05/30 03:59:35;;;;;;;2.90;2.60;;;;;;;22.06;51.33;99538.97;1762585;80;21104;-60
2022/05/30 04:04:30;;;;;;;3.20;2.95;;;;;;;22.08;51.57;99542.25;1826823;76;22629;-60
2022/05/30 04:06:57;;;;;;;7.28;3.10;;;;;;;22.02;51.62;99558.63;1758056;80;21505;-61
2022/05/30 04:09:23;;;;;;;4.50;2.83;;;;;;;22.02;51.67;99543.76;1750851;81;21141;-60
2022/05/30 04:11:53;;;;;;;4.05;3.15;;;;;;;22.02;51.85;99546.46;1751243;80;21061;-60
2022/05/30 04:14:38;;;;;;;3.50;3.20;;;;;;;22.01;51.98;99568.64;1769124;80;20941;-59
2022/05/30 04:17:09;;;;;;;3.58;3.25;;;;;;;22.00;52.13;99564.31;1766777;80;21027;-61
2022/05/30 04:19:36;;;;;;;5.45;3.35;;;;;;;22.00;52.22;99562.96;1758709;80;21994;-60
2022/05/30 04:22:04;;;;;;;3.90;3.30;;;;;;;22.00;52.41;99546.73;1750697;81;21106;-60
2022/05/30 04:24:32;;;;;;;3.17;2.95;;;;;;;21.98;52.46;99546.13;1749738;80;21036;-61
2022/05/30 04:27:01;;;;;;;3.35;3.00;;;;;;;21.98;52.55;99544.27;1772137;80;21121;-60
2022/05/30 04:29:29;;;;;;;4.37;3.72;;;;;;;21.97;52.65;99535.86;1769435;80;21057;-60
2022/05/30 04:32:10;;;;;;;3.67;3.30;;;;;;;22.00;52.73;99560.26;1753419;80;21002;-60
2022/05/30 04:34:36;;;;;;;4.42;3.40;;;;;;;21.99;52.86;99521.55;1755184;80;21621;-61
2022/05/30 04:37:04;;;;;;;4.08;3.77;;;;;;;21.98;53.01;99544.78;1742145;80;21065;-61
2022/05/30 04:39:31;;;;;;;4.80;3.33;;;;;;;21.97;53.17;99543.16;1764146;79;21032;-59
2022/05/30 04:42:16;;;;;;;4.00;3.60;;;;;;;21.97;53.20;99558.03;1771566;79;21076;-61
2022/05/30 04:45:01;;;;;;;4.15;3.75;;;;;;;21.97;53.21;99556.14;1745325;81;21039;-60
2022/05/30 04:47:35;;;;;;;3.80;3.37;;;;;;;21.98;53.33;99561.02;1738184;81;21222;-62
2022/05/30 04:50:06;;;;;;;4.00;3.00;;;;;;;21.98;53.38;99565.91;1743854;80;21537;-61
2022/05/30 04:52:33;;;;;;;4.67;3.47;;;;;;;21.98;53.39;99574.02;1716326;81;21021;-60
2022/05/30 04:55:01;;;;;;;3.00;2.75;;;;;;;21.96;53.43;99586.97;1753756;80;21065;-61
2022/05/30 04:57:47;;;;;;;4.33;3.33;;;;;;;21.98;53.51;99586.70;1748346;80;21043;-61
2022/05/30 05:00:30;;;;;;;3.40;3.10;;;;;;;21.99;53.59;99593.77;1651821;85;22012;-64
2022/05/30 05:02:58;;;;;;;3.00;2.70;;;;;;;21.98;53.67;99592.95;1719810;81;21054;-60
2022/05/30 05:05:25;;;;;;;3.95;3.02;;;;;;;21.99;53.72;99594.58;1790338;78;21561;-63
2022/05/30 05:08:16;;;;;;;3.22;2.92;;;;;;;21.99;53.75;99614.86;1788525;78;21073;-61
2022/05/30 05:11:06;;;;;;;3.12;2.83;;;;;;;22.00;53.77;99621.11;1752679;78;21036;-60
2022/05/30 05:13:52;;;;;;;3.90;2.90;;;;;;;22.00;53.84;99646.80;1729897;82;21009;-62
2022/05/30 05:16:32;;;;;;;3.22;2.60;;;;;;;22.00;53.90;99673.86;1778566;78;21473;-61
2022/05/30 05:18:59;;;;;;;3.55;2.77;;;;;;;22.01;53.95;99682.78;1789748;78;21085;-61
2022/05/30 05:21:32;;;;;;;4.65;2.92;;;;;;;22.02;54.02;99672.23;1777021;79;21050;-61
2022/05/30 05:23:59;;;;;;;4.47;2.90;;;;;;;22.02;54.09;99654.14;1772255;78;21043;-61
2022/05/30 05:26:27;;;;;;;3.42;3.12;;;;;;;22.04;54.10;99657.42;1780061;80;21131;-61
2022/05/30 05:29:05;;;;;;;2.83;2.62;;;;;;;22.05;54.16;99670.41;1788329;79;20985;-61
2022/05/30 05:31:34;;;;;;;3.00;2.72;;;;;;;22.05;54.18;99660.94;1794071;78;21537;-63
2022/05/30 05:34:03;;;;;;;3.08;2.77;;;;;;;22.06;54.22;99678.28;1791616;78;21042;-62
2022/05/30 05:36:32;;;;;;;3.17;2.80;;;;;;;22.07;54.27;99674.49;1775639;78;21017;-61
2022/05/30 05:38:59;;;;;;;2.62;2.42;;;;;;;22.08;54.28;99660.42;1793309;78;21142;-61
2022/05/30 05:41:27;;;;;;;3.77;3.00;;;;;;;22.08;54.28;99669.89;1773388;78;20987;-61
2022/05/30 05:43:58;;;;;;;3.77;2.60;;;;;;;22.10;54.36;99669.14;1790995;78;21473;-61
2022/05/30 05:46:28;;;;;;;3.27;2.85;;;;;;;22.10;54.39;99664.55;1793420;78;21093;-60
2022/05/30 05:48:55;;;;;;;2.77;2.55;;;;;;;22.09;54.41;99658.83;1786692;78;21084;-62
2022/05/30 05:51:22;;;;;;;4.83;2.50;;;;;;;22.08;54.55;99665.84;1791452;78;21138;-60
2022/05/30 05:53:49;;;;;;;2.67;2.45;;;;;;;22.05;54.58;99680.68;1783057;78;21084;-59
2022/05/30 05:56:19;;;;;;;3.65;2.58;;;;;;;22.04;54.64;99682.27;1770593;78;20955;-59
2022/05/30 05:58:45;;;;;;;3.27;3.00;;;;;;;22.04;54.62;99657.42;1783412;78;21041;-59
2022/05/30 06:01:19;;;;;;;3.37;3.08;;;;;;;22.05;54.76;99656.34;1775745;78;21155;-58
2022/05/30 06:03:45;;;;;;;4.10;3.17;;;;;;;22.05;54.75;99654.98;1789464;78;21274;-60
2022/05/30 06:06:20;;;;;;;3.05;2.75;;;;;;;22.08;54.80;99646.39;1805664;78;21081;-59
2022/05/30 06:08:50;;;;;;;3.02;2.72;;;;;;;22.10;54.76;99628.56;1806679;78;20986;-59
2022/05/30 06:11:21;;;;;;;4.78;2.52;;;;;;;22.10;54.82;99630.73;1806581;78;21010;-59
2022/05/30 06:13:50;;;;;;;5.12;2.85;;;;;;;22.11;54.95;99639.12;1803709;77;20970;-60
2022/05/30 06:16:23;;;;;;;3.35;2.75;;;;;;;22.10;55.00;99648.31;1809936;79;21206;-59
2022/05/30 06:18:54;;;;;;;3.15;2.80;;;;;;;22.11;55.02;99645.88;1807531;78;21003;-59
2022/05/30 06:21:23;;;;;;;4.33;3.05;;;;;;;22.11;55.03;99649.94;1740809;82;21695;-60
2022/05/30 06:23:51;;;;;;;3.35;3.00;;;;;;;22.10;55.14;99657.78;1811587;79;20991;-59
2022/05/30 06:26:37;;;;;;;3.72;2.77;;;;;;;22.09;55.28;99660.19;1800954;79;21065;-60
2022/05/30 06:29:22;;;;;;;5.92;2.75;;;;;;;22.06;55.41;99651.23;1797651;79;21254;-60
2022/05/30 06:31:50;;;;;;;2.92;2.50;;;;;;;22.05;55.43;99654.98;1811734;79;21218;-59
2022/05/30 06:34:16;;;;;;;2.77;2.58;;;;;;;22.05;55.45;99646.05;1808681;79;21186;-60
2022/05/30 06:36:46;;;;;;;3.17;2.20;;;;;;;22.05;55.49;99633.34;1812959;79;21003;-60
2022/05/30 06:39:12;;;;;;;3.15;2.30;;;;;;;22.08;55.58;99629.31;1812154;79;21076;-59
2022/05/30 06:41:41;;;;;;;2.70;2.50;;;;;;;22.06;55.62;99617.93;1776813;79;21143;-60
2022/05/30 06:44:09;;;;;;;2.95;2.45;;;;;;;22.04;55.68;99606.03;1797763;79;21489;-60
2022/05/30 06:46:54;;;;;;;4.92;3.08;;;;;;;22.06;55.68;99590.88;1799856;77;21243;-58
2022/05/30 06:49:39;;;;;;;3.15;2.40;;;;;;;22.08;56.07;99582.82;1804867;78;21036;-59
2022/05/30 06:52:09;;;;;;;5.47;2.50;;;;;;;22.11;56.16;99572.84;1804330;78;21030;-60
2022/05/30 06:54:35;;;;;;;4.35;3.08;;;;;;;22.13;56.29;99562.59;1810894;77;21197;-60
2022/05/30 06:59:49;;;;;;;4.45;2.75;;;;;;;22.17;56.41;99543.47;1781475;78;21064;-60
2022/05/30 07:02:15;;;;;;;7.53;4.28;;;;;;;22.17;56.38;99527.23;1801030;78;21032;-58
2022/05/30 07:04:44;;;;;;;11.97;5.85;;;;;;;22.18;56.52;99528.05;1798736;77;21959;-59
2022/05/30 07:07:30;;;;;;;8.68;5.28;;;;;;;22.17;56.87;99539.41;1793238;78;21163;-59
2022/05/30 07:10:01;;;;;;;7.72;5.60;;;;;;;22.16;57.20;99526.13;1789309;78;21096;-58
2022/05/30 07:12:33;;;;;;;8.20;4.62;;;;;;;22.12;57.70;99524.45;1796507;79;21109;-61
2022/05/30 07:15:00;;;;;;;6.55;4.78;;;;;;;22.09;57.91;99516.81;1806365;77;21030;-59
2022/05/30 07:17:27;;;;;;;8.08;4.95;;;;;;;22.05;58.26;99524.34;1794367;79;21069;-59
2022/05/30 07:19:56;;;;;;;8.20;4.75;;;;;;;22.01;58.44;99513.20;1802315;79;21506;-58
2022/05/30 07:22:24;;;;;;;7.78;5.10;;;;;;;21.95;58.62;99500.13;1774342;77;21068;-59
2022/05/30 07:25:09;;;;;;;6.95;4.37;;;;;;;21.93;58.85;99496.86;1801742;77;21014;-60
2022/05/30 07:27:54;;;;;;;6.92;4.12;;;;;;;21.89;59.00;99508.44;1796917;77;21057;-59
2022/05/30 07:30:39;;;;;;;7.58;4.05;;;;;;;21.86;58.97;99492.16;1718240;81;21041;-60
2022/05/30 07:33:24;;;;;;;8.45;4.00;;;;;;;21.83;59.06;99495.37;1784067;77;22552;-59
2022/05/30 07:36:14;;;;;;;7.33;4.33;;;;;;;21.77;59.21;99494.47;1788619;77;21273;-59
2022/05/30 07:38:45;;;;;;;4.80;3.80;;;;;;;21.73;59.37;99485.73;1800824;77;21089;-54
2022/05/30 07:41:30;;;;;;;6.55;3.87;;;;;;;21.71;59.49;99484.66;1797338;78;20992;-59
2022/05/30 07:44:05;;;;;;;5.65;3.92;;;;;;;21.73;59.48;99489.79;1794709;79;21052;-61
2022/05/30 07:46:33;;;;;;;6.53;3.55;;;;;;;21.74;59.37;99488.20;1802562;78;21759;-60
2022/05/30 07:49:12;;;;;;;5.62;4.12;;;;;;;21.74;59.27;99480.09;1801288;79;21007;-60
2022/05/30 07:51:59;;;;;;;5.80;3.70;;;;;;;21.74;59.34;99480.09;1794421;77;21046;-60
2022/05/30 07:54:36;;;;;;;6.53;3.85;;;;;;;21.75;59.32;99497.12;1793934;79;21077;-60
2022/05/30 07:57:06;;;;;;;7.70;3.77;;;;;;;21.73;59.19;99511.42;1801575;79;21509;-60
2022/05/30 07:59:35;;;;;;;5.15;3.30;;;;;;;21.70;59.17;99514.64;1793230;78;21065;-59
2022/05/30 08:02:04;;;;;;;3.67;3.37;;;;;;;21.67;59.10;99506.50;1801377;79;20959;-60
2022/05/30 08:04:30;;;;;;;4.08;3.27;;;;;;;21.67;59.23;99496.19;1802955;77;21014;-61
2022/05/30 08:06:59;;;;;;;4.35;3.40;;;;;;;21.65;59.41;99507.25;1811070;77;21513;-62
2022/05/30 08:09:45;;;;;;;3.65;3.30;;;;;;;21.65;59.56;99525.36;1801552;77;21441;-60
2022/05/30 08:12:14;;;;;;;5.03;3.35;;;;;;;21.64;59.69;99521.84;1812455;77;22021;-59
2022/05/30 08:14:56;;;;;;;5.83;3.27;;;;;;;21.64;59.67;99515.63;1803513;77;21335;-61
2022/05/30 08:17:25;;;;;;;5.00;3.42;;;;;;;21.66;59.67;99522.41;1802984;77;21552;-61
2022/05/30 08:19:52;;;;;;;4.87;3.45;;;;;;;21.70;59.64;99524.91;1801870;77;21053;-63
2022/05/30 08:22:22;;;;;;;5.40;3.50;;;;;;;21.73;59.53;99514.96;1805359;78;21024;-61
2022/05/30 08:24:48;;;;;;;5.62;3.52;;;;;;;21.77;59.40;99506.64;1809978;78;21133;-61
2022/05/30 08:27:16;;;;;;;6.55;3.45;;;;;;;21.81;59.41;99496.16;1805773;79;21072;-62
2022/05/30 08:29:51;;;;;;;5.17;3.27;;;;;;;21.84;59.71;99501.59;1815005;79;21037;-61
2022/05/30 08:32:18;;;;;;;6.62;3.52;;;;;;;21.88;59.60;99490.56;1811263;78;21112;-62
2022/05/30 08:34:59;;;;;;;5.42;3.30;;;;;;;21.90;59.30;99498.70;1814873;79;21566;-61
2022/05/30 08:37:30;;;;;;;5.03;3.72;;;;;;;21.94;59.08;99501.22;1810140;78;21266;-59
2022/05/30 08:42:38;;;;;;;6.62;3.70;;;;;;;21.99;58.68;99516.69;1812494;77;21067;-60
2022/05/30 08:45:20;;;;;;;4.50;4.10;;;;;;;21.95;58.49;99523.12;1810474;77;21124;-59
2022/05/30 08:47:54;;;;;;;6.35;3.62;;;;;;;21.93;58.48;99516.33;1773615;78;21552;-60
2022/05/30 08:50:44;;;;;;;6.58;4.40;;;;;;;21.89;58.47;99513.30;1803925;78;21137;-62
2022/05/30 08:53:35;;;;;;;6.42;4.40;;;;;;;21.87;58.51;99520.03;1766254;79;21568;-62
2022/05/30 08:56:23;;;;;;;7.03;4.78;;;;;;;21.84;58.45;99509.70;1811925;79;20994;-61
2022/05/30 08:59:39;;;;;;;5.55;4.70;;;;;;;21.79;58.53;99518.03;1805741;77;21479;-60
2022/05/30 09:02:15;;;;;;;5.17;4.30;;;;;;;21.76;58.63;99502.83;1811855;77;21038;-59
2022/05/30 09:04:55;;;;;;;6.12;4.42;;;;;;;21.74;58.70;99513.88;1793403;79;21148;-60
2022/05/30 09:07:39;;;;;;;5.10;4.33;;;;;;;21.73;58.73;99513.61;1783046;79;21065;-59
2022/05/30 09:10:20;;;;;;;6.53;4.90;;;;;;;21.73;58.79;99506.86;1788264;79;21038;-60
2022/05/30 09:13:08;;;;;;;4.65;4.25;;;;;;;21.72;58.80;99515.20;1796612;77;21101;-60
2022/05/30 09:15:57;;;;;;;7.17;4.97;;;;;;;21.72;58.74;99513.85;1795593;77;21572;-59
2022/05/30 09:18:46;;;;;;;4.60;3.52;;;;;;;21.72;58.78;99512.50;1793518;78;21930;-60
2022/05/30 09:21:14;;;;;;;7.45;4.78;;;;;;;21.71;58.74;99517.09;1788932;77;21097;-62
2022/05/30 09:23:43;;;;;;;4.62;4.12;;;;;;;21.71;58.67;99501.39;1792666;77;21070;-60
2022/05/30 09:26:13;;;;;;;6.12;4.45;;;;;;;21.72;58.81;99498.98;1799134;79;21034;-59
2022/05/30 09:28:41;;;;;;;5.65;4.22;;;;;;;21.72;58.66;99502.50;1789493;79;21061;-59
2022/05/30 09:32:12;;;;;;;9.70;4.53;;;;;;;21.72;58.70;99502.50;1802483;77;21167;-61
2022/05/30 09:34:49;;;;;;;6.03;4.30;;;;;;;21.77;58.82;99511.23;1799311;77;20990;-61
2022/05/30 09:37:38;;;;;;;5.53;3.98;;;;;;;21.83;58.85;99508.05;1795667;79;21487;-59
2022/05/30 09:40:11;;;;;;;4.55;4.10;;;;;;;21.88;58.75;99503.53;1802222;79;21100;-60
2022/05/30 09:42:49;;;;;;;6.75;4.50;;;;;;;21.93;58.70;99502.81;1802050;79;21031;-59
2022/05/30 09:45:28;;;;;;;5.97;4.15;;;;;;;21.96;58.56;99487.42;1792784;77;21107;-60
2022/05/30 09:48:08;;;;;;;5.85;4.22;;;;;;;21.96;58.55;99493.67;1793890;79;22055;-60
2022/05/30 09:50:54;;;;;;;5.35;4.20;;;;;;;22.00;58.50;99483.17;1794127;77;21013;-60
2022/05/30 09:53:48;;;;;;;5.12;4.50;;;;;;;22.02;58.31;99479.69;1798754;77;21052;-60
2022/05/30 09:56:18;;;;;;;7.35;4.12;;;;;;;22.03;58.38;99482.66;1786931;79;21501;-59
2022/05/30 09:59:13;;;;;;;7.70;4.62;;;;;;;22.07;58.40;99489.20;1776583;78;21199;-61
2022/05/30 10:01:50;;;;;;;9.15;4.72;;;;;;;22.12;58.33;99475.75;1793388;78;21025;-60
2022/05/30 10:04:31;;;;;;;5.70;5.10;;;;;;;22.15;58.22;99479.30;1800818;77;21050;-60
2022/05/30 10:07:16;;;;;;;5.85;4.55;;;;;;;22.18;58.10;99479.34;1797523;79;21548;-61
2022/05/30 10:09:55;;;;;;;6.75;5.03;;;;;;;22.19;58.09;99466.09;1792640;79;21515;-61
2022/05/30 10:12:33;;;;;;;7.00;4.37;;;;;;;22.18;58.15;99470.69;1791183;79;22099;-60
2022/05/30 10:15:03;;;;;;;6.65;4.45;;;;;;;22.17;58.15;99466.37;1772001;77;21049;-61
2022/05/30 10:17:35;;;;;;;4.95;4.25;;;;;;;22.17;58.16;99462.81;1803043;77;21033;-61
2022/05/30 10:20:11;;;;;;;6.40;4.22;;;;;;;22.17;58.19;99470.42;1802210;77;21036;-61
2022/05/30 10:29:16;;;;;;;5.95;4.45;;;;;;;22.14;58.24;99449.27;1721414;81;21046;-60
2022/05/30 10:32:11;;;;;;;6.85;4.72;;;;;;;22.14;58.28;99459.28;1764704;77;21534;-60
2022/05/30 10:35:10;;;;;;;5.83;4.53;;;;;;;22.13;58.24;99442.75;1733141;82;21029;-60
2022/05/30 10:37:56;;;;;;;6.35;4.65;;;;;;;22.11;58.34;99451.66;1793173;79;21002;-61
2022/05/30 10:40:32;;;;;;;6.65;4.78;;;;;;;22.11;58.46;99443.54;1801822;79;21129;-61
2022/05/30 10:43:10;;;;;;;5.87;4.95;;;;;;;22.13;58.49;99443.56;1786428;79;21065;-60
2022/05/30 10:45:57;;;;;;;7.58;5.05;;;;;;;22.14;58.48;99438.45;1784592;77;21069;-60
2022/05/30 10:48:34;;;;;;;6.87;5.12;;;;;;;22.16;58.40;99446.32;1793310;77;21049;-61
2022/05/30 10:51:23;;;;;;;4.65;4.08;;;;;;;22.17;58.41;99444.72;1802979;77;20998;-60
2022/05/30 10:54:24;;;;;;;7.62;4.90;;;;;;;22.18;58.39;99438.23;1790785;77;21824;-60
2022/05/30 10:56:57;;;;;;;5.33;4.50;;;;;;;22.21;58.38;99439.60;1800333;77;21077;-61
2022/05/30 10:59:38;;;;;;;8.08;5.15;;;;;;;22.24;58.42;99431.53;1804231;79;21010;-60
2022/05/30 11:02:27;;;;;;;7.35;4.87;;;;;;;22.25;58.41;99430.48;1806432;79;21489;-59
2022/05/30 11:05:34;;;;;;;7.45;4.70;;;;;;;22.26;58.50;99432.94;1801331;79;21506;-60
2022/05/30 11:08:37;;;;;;;6.72;5.35;;;;;;;22.28;58.46;99432.69;1708256;79;21169;-60
2022/05/30 11:11:20;;;;;;;5.85;5.15;;;;;;;22.30;58.59;99425.95;1815398;79;21030;-60
2022/05/30 11:13:59;;;;;;;8.30;5.30;;;;;;;22.30;58.56;99430.00;1811884;79;20966;-60
2022/05/30 11:16:42;;;;;;;6.67;4.92;;;;;;;22.28;58.68;99444.87;1729258;79;21531;-60
2022/05/30 11:20:07;;;;;;;8.33;6.40;;;;;;;22.26;58.75;99424.02;1802001;79;21033;-60
2022/05/30 11:22:45;;;;;;;7.70;6.20;;;;;;;22.25;58.74;99423.20;1812516;77;22291;-60
2022/05/30 11:25:18;;;;;;;6.80;5.55;;;;;;;22.23;58.67;99423.12;1796490;77;26686;-62
2022/05/30 11:28:02;;;;;;;;;;;;;;;22.20;58.72;99421.75;1792566;79;21106;-61
2022/05/30 11:30:40;;;;;;;5.85;5.25;;;;;;;22.16;58.82;99421.43;1791018;79;20193;-60
2022/05/30 11:33:29;;;;;;;6.67;5.22;;;;;;;22.13;58.99;99426.52;1788510;78;21527;-61
2022/05/30 11:36:40;;;;;;;5.72;5.12;;;;;;;22.11;59.03;99431.37;1803709;79;21148;-59
2022/05/30 11:39:24;;;;;;;6.83;5.50;;;;;;;22.13;59.10;99418.41;1811232;79;21049;-61
2022/05/30 11:42:16;;;;;;;7.40;5.90;;;;;;;22.14;59.17;99412.75;1816230;78;21084;-61
2022/05/30 11:44:59;;;;;;;7.05;5.50;;;;;;;22.13;59.29;99404.34;1816429;79;20986;-61
2022/05/30 11:47:58;;;;;;;7.75;5.97;;;;;;;22.15;59.42;99406.80;1788078;79;21084;-60
2022/05/30 11:50:43;;;;;;;9.55;5.80;;;;;;;22.16;59.43;99410.61;1814836;79;21149;-60
2022/05/30 11:53:51;;;;;;;6.45;5.53;;;;;;;22.18;59.32;99407.66;1807212;79;21018;-60
2022/05/30 11:56:32;;;;;;;6.25;5.65;;;;;;;22.21;59.41;99417.14;1816097;78;21037;-60
2022/05/30 11:59:42;;;;;;;8.55;5.55;;;;;;;22.22;59.51;99409.33;1815528;79;21045;-61
2022/05/30 12:02:16;;;;;;;6.78;6.05;;;;;;;22.22;59.46;99406.08;1816156;78;21497;-60
2022/05/30 12:05:13;;;;;;;5.70;5.05;;;;;;;22.23;59.44;99413.11;1815550;78;21136;-60
2022/05/30 12:08:10;;;;;;;5.92;5.17;;;;;;;22.24;59.44;99406.64;1803415;79;21466;-60
2022/05/30 12:11:12;;;;;;;8.75;5.90;;;;;;;22.25;59.49;99417.79;1806434;77;21523;-61
2022/05/30 12:14:00;;;;;;;12.78;6.87;;;;;;;22.25;59.62;99411.54;1810773;78;21513;-61
2022/05/30 12:16:51;;;;;;;14.55;6.35;;;;;;;22.24;60.07;99406.64;1816420;78;21446;-59
2022/05/30 12:25:45;;;;;;;9.60;6.35;;;;;;;22.30;60.76;99406.20;1813076;78;21021;-59
2022/05/30 12:28:34;;;;;;;8.93;6.40;;;;;;;22.32;60.64;99403.51;1806594;78;21068;-60
2022/05/30 12:31:04;;;;;;;10.03;6.20;;;;;;;22.34;60.65;99410.84;1800403;77;21079;-61
2022/05/30 12:33:36;;;;;;;9.58;5.92;;;;;;;22.36;60.56;99407.88;1815272;78;21315;-61
2022/05/30 12:36:17;;;;;;;6.37;5.42;;;;;;;22.38;60.44;99407.90;1808505;79;21001;-61
2022/05/30 12:39:00;;;;;;;6.58;5.83;;;;;;;22.44;60.26;99415.55;1786507;79;21128;-59
2022/05/30 12:41:40;;;;;;;7.72;6.05;;;;;;;22.48;60.10;99409.09;1792478;77;21073;-60